CheckWX is a tool to help pilots better visualize weather data.  It is not intended as a substitute for an official pre-flight weather briefing.

09:57:11 UTC

KMBS METAR
Mbs International Airport
Saginaw, Michigan, USA
Current

1 hour ago

KMBS 250853Z AUTO 00000KT 10SM CLR 12/10 A3027 RMK AO2 SLP249 T01220100 56005
Observed
Aug-25 @ 08:53 UTC
Visibility
10 SM
Flight Rules
VFR
Cloud Levels
  • Clear skies
Temperature
12°C / 54°F
Dewpoint
10°C / 50°F
Humidity
88%
Altimeter
30.27" Hg
Pressure
1025.02 hPa
Previous

2 hours ago

KMBS 250753Z AUTO 00000KT 10SM CLR 12/10 A3027 RMK AO2 SLP250 T01220100
Observed
Aug-25 @ 07:53 UTC
Visibility
10 SM
Flight Rules
VFR
Cloud Levels
  • Clear skies
Temperature
12°C / 54°F
Dewpoint
10°C / 50°F
Humidity
88%
Altimeter
30.27" Hg
Pressure
1025.02 hPa
Previous

3 hours ago

KMBS 250653Z AUTO 06003KT 10SM CLR 12/09 A3028 RMK AO2 SLP253 T01170094
Observed
Aug-25 @ 06:53 UTC
Wind
  • 060° at 3 KTS
Visibility
10 SM
Flight Rules
VFR
Cloud Levels
  • Clear skies
Temperature
12°C / 54°F
Dewpoint
C / 48°F
Humidity
82%
Altimeter
30.28" Hg
Pressure
1025.42 hPa